Time;durP1;ratioP1;P1;durP2;ratioP2;P2;SDS_P1;SDS_P2;PMS_P1;PMS_P2;Temp;Humidity;BMP_temperature;BMP_pressure;BME280_temperature;BME280_humidity;BME280_pressure;Samples;Min_cycle;Max_cycle;Signal;HPM_P1;HPM_P2
2022/01/27 00:05:22;;;;;;;27.48;5.18;;;;;;;5.17;97.61;100427.69;5095003;28;20427;-75
2022/01/27 00:11:07;;;;;;;29.90;4.32;;;;;;;5.13;98.73;100405.75;5038919;28;20045;-75
2022/01/27 00:13:42;;;;;;;17.75;3.13;;;;;;;5.11;99.08;100391.66;5069121;28;20053;-75
2022/01/27 00:16:12;;;;;;;19.15;2.90;;;;;;;5.07;99.44;100385.09;5094536;28;20027;-75
2022/01/27 00:18:39;;;;;;;19.10;4.30;;;;;;;5.07;99.72;100387.81;5094657;28;20469;-75
2022/01/27 00:21:05;;;;;;;23.58;4.63;;;;;;;5.05;100.00;100371.03;5094415;28;20366;-75
2022/01/27 00:23:30;;;;;;;34.97;5.22;;;;;;;5.05;100.00;100361.06;5076029;28;20044;-75
2022/01/27 00:25:55;;;;;;;20.55;5.45;;;;;;;5.04;100.00;100353.19;5094450;28;20024;-75
2022/01/27 00:28:21;;;;;;;32.35;5.47;;;;;;;5.03;100.00;100338.06;5076266;28;20457;-75
2022/01/27 00:30:46;;;;;;;26.73;5.03;;;;;;;5.00;100.00;100319.63;5094656;28;20196;-75
2022/01/27 00:33:11;;;;;;;35.95;5.60;;;;;;;4.97;100.00;100320.94;5093705;28;20530;-75
2022/01/27 00:35:37;;;;;;;24.90;4.00;;;;;;;4.96;100.00;100313.06;5094197;28;20032;-75
2022/01/27 00:38:02;;;;;;;33.90;4.82;;;;;;;4.95;100.00;100296.06;5094086;28;20034;-75
2022/01/27 00:40:28;;;;;;;33.92;6.57;;;;;;;4.94;100.00;100290.91;5094241;28;20036;-75
2022/01/27 00:42:53;;;;;;;22.08;4.75;;;;;;;4.95;100.00;100284.44;5075989;28;20043;-75
2022/01/27 00:45:19;;;;;;;27.48;4.38;;;;;;;4.93;100.00;100279.28;5093917;28;20024;-75
2022/01/27 00:47:44;;;;;;;26.55;4.82;;;;;;;4.94;100.00;100277.38;5075935;28;20027;-75
2022/01/27 00:50:09;;;;;;;26.42;5.25;;;;;;;4.93;100.00;100270.38;5076086;28;20081;-75
2022/01/27 00:52:42;;;;;;;21.08;3.50;;;;;;;4.92;100.00;100264.16;5094184;28;20020;-75
2022/01/27 00:55:09;;;;;;;17.30;4.88;;;;;;;4.93;100.00;100251.47;5075709;28;20114;-75
2022/01/27 00:57:57;;;;;;;25.58;4.32;;;;;;;4.93;100.00;100232.53;5075751;28;20020;-75
2022/01/27 01:00:26;;;;;;;18.95;3.75;;;;;;;4.96;100.00;100237.44;5078260;28;20386;-76
2022/01/27 01:03:06;;;;;;;19.55;3.97;;;;;;;4.97;100.00;100236.41;5093559;28;20024;-75
2022/01/27 01:11:27;;;;;;;18.40;3.90;;;;;;;5.00;100.00;100200.78;5041678;28;20536;-75
2022/01/27 01:16:25;;;;;;;15.23;3.80;;;;;;;5.01;100.00;100191.59;5075520;28;20020;-75
2022/01/27 01:19:14;;;;;;;17.17;3.47;;;;;;;5.02;100.00;100188.66;5093671;28;20032;-75
2022/01/27 01:29:25;;;;;;;14.75;3.60;;;;;;;5.02;100.00;100177.00;5093374;28;20038;-75
2022/01/27 01:32:57;;;;;;;13.60;3.17;;;;;;;5.06;100.00;100140.31;5093240;28;20376;-75
2022/01/27 01:35:27;;;;;;;19.05;3.60;;;;;;;5.09;100.00;100131.72;5092244;28;20032;-75
2022/01/27 01:37:56;;;;;;;15.98;3.50;;;;;;;5.11;100.00;100148.50;5075020;28;20028;-75
2022/01/27 01:40:22;;;;;;;8.73;2.63;;;;;;;5.12;100.00;100133.91;5075256;28;20020;-75
2022/01/27 01:42:47;;;;;;;20.40;3.45;;;;;;;5.12;100.00;100112.28;5092538;28;20032;-75
2022/01/27 01:45:17;;;;;;;29.80;3.83;;;;;;;5.15;100.00;100103.69;5074273;28;20047;-75
2022/01/27 01:47:43;;;;;;;17.17;3.45;;;;;;;5.18;100.00;100099.66;5058812;28;20028;-75
2022/01/27 01:50:09;;;;;;;15.05;2.85;;;;;;;5.20;100.00;100095.63;5058138;28;20027;-75
2022/01/27 01:52:34;;;;;;;27.85;4.32;;;;;;;5.23;100.00;100080.78;5058200;28;20103;-75
2022/01/27 01:55:01;;;;;;;23.45;2.78;;;;;;;5.25;100.00;100076.75;5092731;28;20020;-76
2022/01/27 01:57:26;;;;;;;10.02;2.10;;;;;;;5.25;100.00;100062.44;5092890;28;20038;-75
2022/01/27 01:59:52;;;;;;;10.35;2.92;;;;;;;5.26;100.00;100069.47;5092749;28;20020;-75
2022/01/27 02:02:17;;;;;;;20.70;3.90;;;;;;;5.24;100.00;100060.81;5092458;28;20067;-75
2022/01/27 02:04:43;;;;;;;21.08;3.58;;;;;;;5.22;100.00;100028.63;5092648;28;20031;-75
2022/01/27 02:07:22;;;;;;;15.63;3.58;;;;;;;5.23;100.00;100053.75;5074949;28;20020;-75
2022/01/27 02:10:05;;;;;;;8.95;3.03;;;;;;;5.23;100.00;100022.16;5043613;28;20081;-76
2022/01/27 02:17:59;;;;;;;12.93;2.75;;;;;;;5.28;100.00;100008.69;4990866;28;20151;-75
2022/01/27 02:18:25;;;;;;;13.93;2.70;;;;;;;5.29;100.00;99999.53;5078643;28;20058;-75
2022/01/27 02:20:50;;;;;;;12.20;3.50;;;;;;;5.30;100.00;99984.13;5092433;28;20036;-76
2022/01/27 02:23:16;;;;;;;14.98;3.63;;;;;;;5.30;100.00;99979.53;5070581;28;20051;-75
2022/01/27 02:25:41;;;;;;;14.98;3.53;;;;;;;5.32;100.00;99973.88;5072234;28;20077;-75
2022/01/27 02:28:06;;;;;;;18.85;3.67;;;;;;;5.32;100.00;99969.28;5070834;28;20373;-75
2022/01/27 02:30:32;;;;;;;19.17;3.50;;;;;;;5.35;100.00;99959.84;5072054;28;20017;-75
2022/01/27 02:32:59;;;;;;;18.67;4.35;;;;;;;5.36;100.00;99968.75;5072172;28;20024;-75
2022/01/27 02:35:26;;;;;;;23.67;4.50;;;;;;;5.39;100.00;99943.91;5072250;28;20248;-75
2022/01/27 02:37:51;;;;;;;15.63;3.13;;;;;;;5.40;100.00;99940.94;5071871;28;20350;-76
2022/01/27 02:40:28;;;;;;;20.23;4.03;;;;;;;5.40;100.00;99940.13;5053963;28;20024;-75
2022/01/27 02:42:54;;;;;;;13.60;3.92;;;;;;;5.42;100.00;99959.59;5055045;28;20028;-75
2022/01/27 02:45:44;;;;;;;18.65;3.00;;;;;;;5.44;100.00;99938.53;5071761;28;20078;-75
2022/01/27 02:48:11;;;;;;;20.63;3.25;;;;;;;5.46;100.00;99939.09;5071728;28;20082;-75
2022/01/27 02:50:36;;;;;;;16.45;2.92;;;;;;;5.47;100.00;99913.69;5071836;28;20374;-75
2022/01/27 02:53:02;;;;;;;15.02;3.45;;;;;;;5.49;100.00;99916.94;5071854;28;20070;-75
2022/01/27 02:55:27;;;;;;;20.52;3.90;;;;;;;5.50;100.00;99908.56;5055585;28;20016;-75
2022/01/27 02:57:55;;;;;;;16.67;3.40;;;;;;;5.52;100.00;99902.91;5064314;28;20032;-75
2022/01/27 03:00:21;;;;;;;9.88;1.95;;;;;;;5.54;100.00;99903.47;5096126;28;20103;-75
2022/01/27 03:02:46;;;;;;;14.57;3.75;;;;;;;5.59;100.00;99892.66;5095862;28;20031;-76
2022/01/27 03:05:11;;;;;;;13.02;3.95;;;;;;;5.61;100.00;99909.44;5096356;28;20187;-75
2022/01/27 03:07:37;;;;;;;13.38;3.45;;;;;;;5.66;100.00;99884.31;5095924;28;20032;-76
2022/01/27 03:10:03;;;;;;;11.82;3.30;;;;;;;5.67;100.00;99886.75;5069209;28;20024;-76
2022/01/27 03:12:30;;;;;;;24.40;4.25;;;;;;;5.68;100.00;99879.47;5075718;28;20020;-75
2022/01/27 03:14:57;;;;;;;18.63;3.97;;;;;;;5.68;100.00;99877.56;5075463;28;20021;-76
2022/01/27 03:17:23;;;;;;;19.13;4.28;;;;;;;5.69;100.00;99871.06;5075537;28;20102;-75
2022/01/27 03:19:48;;;;;;;18.05;3.38;;;;;;;5.69;100.00;99883.78;5057514;28;20026;-76
2022/01/27 03:22:14;;;;;;;20.17;5.00;;;;;;;5.70;100.00;99874.59;5075275;28;20044;-76
2022/01/27 03:24:39;;;;;;;26.02;4.60;;;;;;;5.69;100.00;99848.63;5075182;28;20020;-76
2022/01/27 03:27:14;;;;;;;17.55;3.65;;;;;;;5.71;100.00;99860.81;5075387;28;20039;-76
2022/01/27 03:29:39;;;;;;;17.27;4.95;;;;;;;5.72;100.00;99859.72;5058535;28;20141;-75
2022/01/27 03:32:05;;;;;;;22.90;4.32;;;;;;;5.72;100.00;99846.19;5074091;28;20028;-76
2022/01/27 03:34:31;;;;;;;21.77;4.70;;;;;;;5.74;100.00;99827.03;5075128;28;20024;-76
2022/01/27 03:36:57;;;;;;;21.42;3.30;;;;;;;5.75;100.00;99831.34;5075170;28;20087;-76
2022/01/27 03:39:23;;;;;;;16.10;3.20;;;;;;;5.76;100.00;99824.88;5075112;28;20031;-75
2022/01/27 03:41:53;;;;;;;20.58;3.95;;;;;;;5.76;100.00;99819.47;5057280;28;20020;-76
2022/01/27 03:44:19;;;;;;;19.13;3.85;;;;;;;5.78;100.00;99817.28;5074914;28;20031;-75
2022/01/27 03:46:44;;;;;;;10.38;2.63;;;;;;;5.79;100.00;99805.41;5056900;28;20016;-76
2022/01/27 03:49:10;;;;;;;24.73;3.65;;;;;;;5.79;100.00;99797.28;5074931;28;20031;-76
2022/01/27 03:51:35;;;;;;;14.93;3.03;;;;;;;5.81;100.00;99791.59;5074701;28;20051;-76
2022/01/27 03:54:00;;;;;;;17.10;3.72;;;;;;;5.79;100.00;99795.41;5074862;28;20024;-76
2022/01/27 03:56:26;;;;;;;21.15;3.88;;;;;;;5.81;100.00;99788.91;5056868;28;20474;-76
2022/01/27 03:58:51;;;;;;;19.40;3.72;;;;;;;5.81;100.00;99773.50;5071155;28;20077;-76
2022/01/27 04:01:17;;;;;;;25.25;4.82;;;;;;;5.83;100.00;99782.13;5095024;28;20020;-76
2022/01/27 04:03:43;;;;;;;19.83;3.97;;;;;;;5.83;100.00;99778.63;5064202;28;20024;-75
2022/01/27 04:06:10;;;;;;;24.10;4.03;;;;;;;5.84;100.00;99769.44;5073602;28;20158;-75
2022/01/27 04:08:37;;;;;;;17.58;3.65;;;;;;;5.85;100.00;99747.53;5056647;28;20484;-76
2022/01/27 04:11:08;;;;;;;9.85;3.00;;;;;;;5.85;100.00;99752.13;5057017;28;20448;-76
2022/01/27 04:13:34;;;;;;;20.83;4.37;;;;;;;5.86;100.00;99761.88;5094786;28;20021;-75
2022/01/27 04:16:00;;;;;;;18.38;3.95;;;;;;;5.86;100.00;99742.94;5094725;28;20024;-76
2022/01/27 04:18:25;;;;;;;25.92;4.80;;;;;;;5.87;100.00;99749.97;5068834;28;20020;-76
2022/01/27 04:20:51;;;;;;;23.40;6.20;;;;;;;5.87;100.00;99736.47;5074427;28;20027;-76
2022/01/27 04:23:18;;;;;;;26.02;5.13;;;;;;;5.87;100.00;99722.94;5073863;28;20099;-76
2022/01/27 04:25:44;;;;;;;25.80;6.25;;;;;;;5.87;100.00;99709.41;5074267;28;20065;-76
2022/01/27 04:28:13;;;;;;;31.20;6.15;;;;;;;5.88;100.00;99717.25;5074076;28;20091;-76
2022/01/27 04:30:38;;;;;;;25.83;5.28;;;;;;;5.89;100.00;99720.75;5056178;28;20449;-76
2022/01/27 04:33:05;;;;;;;23.48;4.30;;;;;;;5.87;100.00;99707.50;5056150;28;20016;-75
2022/01/27 04:35:34;;;;;;;31.60;5.18;;;;;;;5.88;100.00;99708.31;5076046;28;20110;-75
2022/01/27 04:40:33;;;;;;;19.30;4.20;;;;;;;5.91;100.00;99699.66;5094197;28;20019;-75
2022/01/27 04:43:13;;;;;;;34.35;7.15;;;;;;;5.93;100.00;99695.63;5094114;28;20028;-76
2022/01/27 04:45:51;;;;;;;28.05;5.47;;;;;;;5.94;100.00;99677.50;5075999;28;20473;-75
2022/01/27 04:48:19;;;;;;;34.63;5.85;;;;;;;5.94;100.00;99678.31;5075840;28;20055;-75
2022/01/27 04:50:45;;;;;;;26.10;4.57;;;;;;;5.94;100.00;99674.81;5075887;28;20032;-75
2022/01/27 04:53:20;;;;;;;23.55;3.40;;;;;;;5.95;100.00;99676.44;5094042;28;20020;-76
2022/01/27 04:55:46;;;;;;;29.55;5.72;;;;;;;5.97;100.00;99658.03;5075798;28;20388;-75
2022/01/27 04:58:16;;;;;;;28.77;4.93;;;;;;;6.00;100.00;99649.38;5059043;28;20020;-75
2022/01/27 05:00:42;;;;;;;30.80;5.82;;;;;;;5.96;100.00;99645.59;5075515;28;20047;-75
2022/01/27 05:03:55;;;;;;;26.25;5.15;;;;;;;5.94;100.00;99664.00;5093731;28;20020;-76
2022/01/27 05:05:56;;;;;;;27.60;5.60;;;;;;;5.93;100.00;99624.47;5077319;28;20031;-75
2022/01/27 05:08:22;;;;;;;28.23;6.57;;;;;;;5.94;100.00;99626.13;5093893;28;20358;-76
2022/01/27 05:10:56;;;;;;;40.63;6.13;;;;;;;5.96;100.00;99630.19;5093523;28;20056;-76
2022/01/27 05:13:24;;;;;;;27.88;5.57;;;;;;;5.99;100.00;99628.81;5093609;28;20085;-76
2022/01/27 05:15:50;;;;;;;30.38;6.32;;;;;;;6.02;100.00;99627.47;5093439;28;20358;-76
2022/01/27 05:18:15;;;;;;;30.67;7.40;;;;;;;6.04;100.00;99607.19;5093235;28;20031;-76
2022/01/27 05:20:42;;;;;;;32.70;8.32;;;;;;;6.05;100.00;99605.28;5093665;28;20056;-75
2022/01/27 05:23:07;;;;;;;34.67;6.93;;;;;;;6.04;100.00;99604.47;5093043;28;20392;-75
2022/01/27 05:25:33;;;;;;;39.10;7.70;;;;;;;5.99;100.00;99590.94;5093710;28;20031;-76
2022/01/27 05:27:58;;;;;;;37.65;8.35;;;;;;;5.95;100.00;99579.06;5075050;28;20502;-76
2022/01/27 05:30:24;;;;;;;46.92;6.93;;;;;;;5.90;100.00;99581.75;5093308;28;20030;-75
2022/01/27 05:32:49;;;;;;;38.30;8.07;;;;;;;5.86;100.00;99594.19;5093158;28;20020;-76
2022/01/27 05:35:14;;;;;;;44.58;8.77;;;;;;;5.90;100.00;99576.34;5093218;28;20020;-76
2022/01/27 05:37:40;;;;;;;44.67;10.13;;;;;;;5.98;100.00;99586.63;5093209;28;20460;-76
2022/01/27 05:40:06;;;;;;;41.47;8.23;;;;;;;6.01;100.00;99580.66;5093014;28;20138;-75
2022/01/27 05:42:32;;;;;;;56.20;9.32;;;;;;;6.05;100.00;99562.78;5093228;28;20072;-76
2022/01/27 05:44:57;;;;;;;51.88;10.30;;;;;;;6.08;100.00;99572.25;5074588;28;20026;-75
2022/01/27 05:47:24;;;;;;;54.00;9.30;;;;;;;6.10;100.00;99570.09;5092849;28;20026;-75
2022/01/27 05:49:49;;;;;;;79.18;12.02;;;;;;;6.15;100.00;99554.66;5093073;28;20028;-75
2022/01/27 05:52:15;;;;;;;47.03;9.45;;;;;;;6.18;100.00;99556.81;5092874;28;20027;-75
2022/01/27 05:54:40;;;;;;;50.33;9.23;;;;;;;6.21;100.00;99553.56;5074734;28;20372;-75
2022/01/27 05:57:06;;;;;;;59.45;9.77;;;;;;;6.25;100.00;99542.19;5092709;28;20020;-76
2022/01/27 05:59:31;;;;;;;49.60;9.32;;;;;;;6.27;100.00;99543.53;5092741;28;20480;-76
2022/01/27 06:01:56;;;;;;;59.88;9.80;;;;;;;6.28;100.00;99536.25;5092735;28;20384;-76
2022/01/27 06:04:22;;;;;;;55.78;10.32;;;;;;;6.27;100.00;99546.22;5074808;28;20229;-76
2022/01/27 06:06:47;;;;;;;70.43;10.48;;;;;;;6.28;100.00;99539.75;5092960;28;20465;-76
2022/01/27 06:09:13;;;;;;;59.63;12.27;;;;;;;6.26;100.00;99524.88;5057856;28;20028;-76
2022/01/27 06:11:38;;;;;;;65.28;10.80;;;;;;;6.27;100.00;99540.81;5074465;28;20024;-76
2022/01/27 06:14:04;;;;;;;54.65;11.93;;;;;;;6.29;100.00;99524.31;5092520;28;20028;-76
2022/01/27 06:16:29;;;;;;;63.30;12.30;;;;;;;6.31;100.00;99517.53;5092683;28;20020;-76
2022/01/27 06:18:54;;;;;;;53.65;9.90;;;;;;;6.33;100.00;99509.13;5092496;28;20020;-76
2022/01/27 06:21:20;;;;;;;58.40;8.60;;;;;;;6.34;100.00;99494.53;5092381;28;20031;-75
2022/01/27 06:23:45;;;;;;;53.67;10.55;;;;;;;6.36;100.00;99498.56;5074203;28;20052;-76
2022/01/27 06:26:10;;;;;;;50.97;9.95;;;;;;;6.38;100.00;99491.00;5092259;28;20036;-75
2022/01/27 06:28:36;;;;;;;52.08;10.35;;;;;;;6.43;100.00;99487.44;5074429;28;20055;-76
2022/01/27 06:31:01;;;;;;;56.40;11.45;;;;;;;6.45;100.00;99488.78;5091778;28;20020;-75
2022/01/27 06:33:27;;;;;;;52.85;9.38;;;;;;;6.49;100.00;99469.28;5074162;28;20065;-75
2022/01/27 06:35:52;;;;;;;59.08;10.80;;;;;;;6.50;100.00;99477.13;5074267;28;20028;-76
2022/01/27 06:38:19;;;;;;;67.50;10.82;;;;;;;6.51;100.00;99465.19;5092158;28;20020;-76
2022/01/27 06:40:44;;;;;;;54.67;10.02;;;;;;;6.50;100.00;99455.47;5092282;28;20035;-75
2022/01/27 06:43:14;;;;;;;57.65;9.98;;;;;;;6.47;100.00;99449.81;5092064;28;20024;-76
2022/01/27 06:45:39;;;;;;;50.33;10.70;;;;;;;6.43;100.00;99433.28;5092396;28;20103;-76
2022/01/27 06:48:04;;;;;;;56.30;10.05;;;;;;;6.41;100.00;99433.59;5074240;28;20034;-76
2022/01/27 06:50:31;;;;;;;56.42;12.05;;;;;;;6.40;100.00;99428.44;5092021;28;20457;-75
2022/01/27 06:52:57;;;;;;;55.03;10.80;;;;;;;6.38;100.00;99430.63;5073947;28;20081;-76
2022/01/27 06:55:22;;;;;;;49.38;10.07;;;;;;;6.42;100.00;99431.69;5091948;28;20024;-76
2022/01/27 06:57:49;;;;;;;58.88;10.50;;;;;;;6.48;100.00;99414.31;5073747;28;20439;-76
2022/01/27 07:00:15;;;;;;;57.90;13.65;;;;;;;6.51;100.00;99421.88;5092056;28;20020;-76
2022/01/27 07:02:41;;;;;;;73.63;11.40;;;;;;;6.55;100.00;99409.41;5091986;28;20042;-75
2022/01/27 07:05:07;;;;;;;60.47;11.88;;;;;;;6.57;100.00;99390.97;5073983;28;20023;-75
2022/01/27 07:07:32;;;;;;;56.55;11.07;;;;;;;6.55;100.00;99398.59;5073823;28;20073;-76
2022/01/27 07:09:57;;;;;;;46.90;9.73;;;;;;;6.54;100.00;99399.66;5073920;28;20024;-76
2022/01/27 07:12:23;;;;;;;54.55;8.70;;;;;;;6.52;100.00;99392.91;5091957;28;20426;-75
2022/01/27 07:14:48;;;;;;;59.95;11.02;;;;;;;6.47;100.00;99385.66;5091811;28;20028;-76
2022/01/27 07:17:14;;;;;;;46.58;8.05;;;;;;;6.48;100.00;99397.28;5091947;28;20483;-76
2022/01/27 07:19:40;;;;;;;53.80;9.18;;;;;;;6.52;100.00;99382.91;5091742;28;20020;-75
2022/01/27 07:22:06;;;;;;;47.15;8.68;;;;;;;6.54;100.00;99386.13;5091606;28;20070;-75
2022/01/27 07:24:31;;;;;;;53.78;8.82;;;;;;;6.55;100.00;99373.41;5073640;28;20338;-75
2022/01/27 07:26:57;;;;;;;52.42;7.85;;;;;;;6.57;100.00;99374.72;5091824;28;20031;-76
2022/01/27 07:29:22;;;;;;;40.72;7.63;;;;;;;6.57;100.00;99379.34;5091838;28;20024;-75
2022/01/27 07:31:48;;;;;;;39.90;7.13;;;;;;;6.57;100.00;99358.47;5091835;28;20434;-75
2022/01/27 07:34:13;;;;;;;40.25;7.28;;;;;;;6.55;100.00;99340.94;5091666;28;20329;-76
2022/01/27 07:36:40;;;;;;;39.72;6.55;;;;;;;6.54;100.00;99337.38;5091558;28;20044;-75
2022/01/27 07:39:12;;;;;;;45.45;8.13;;;;;;;6.53;100.00;99334.97;5091543;28;20034;-75
2022/01/27 07:41:37;;;;;;;35.33;7.70;;;;;;;6.52;100.00;99330.63;5058974;28;20575;-75
2022/01/27 07:44:02;;;;;;;46.63;7.53;;;;;;;6.52;100.00;99314.38;5077131;28;20020;-75
2022/01/27 07:46:28;;;;;;;46.85;8.85;;;;;;;6.50;100.00;99320.09;5095070;28;20024;-75
2022/01/27 07:48:53;;;;;;;39.10;6.63;;;;;;;6.50;100.00;99313.88;5077033;28;20027;-76
2022/01/27 07:51:18;;;;;;;29.88;5.85;;;;;;;6.46;100.00;99291.97;5095202;28;20020;-75
2022/01/27 07:53:44;;;;;;;41.25;7.28;;;;;;;6.44;100.00;99278.72;5095279;28;20372;-75
2022/01/27 07:56:09;;;;;;;36.25;7.53;;;;;;;6.43;100.00;99276.28;5095298;28;20469;-75
2022/01/27 07:58:40;;;;;;;48.70;8.05;;;;;;;6.47;100.00;99280.06;5077090;28;20106;-75
2022/01/27 08:01:07;;;;;;;51.65;9.80;;;;;;;6.47;99.70;99285.47;5077564;28;20012;-75
2022/01/27 08:03:37;;;;;;;38.70;6.85;;;;;;;6.45;99.67;99269.50;5060217;28;20012;-76
2022/01/27 08:06:05;;;;;;;40.63;8.65;;;;;;;6.44;99.47;99267.09;5094943;28;20115;-75
2022/01/27 08:08:31;;;;;;;38.08;6.75;;;;;;;6.43;99.52;99260.06;5094720;28;20485;-75
2022/01/27 08:10:56;;;;;;;40.47;7.70;;;;;;;6.45;99.56;99268.72;5094555;28;20129;-76
2022/01/27 08:13:22;;;;;;;57.28;10.07;;;;;;;6.49;99.23;99242.66;5094721;28;20012;-75
2022/01/27 08:15:47;;;;;;;41.50;7.93;;;;;;;6.51;99.34;99226.97;5094697;28;20080;-75
2022/01/27 08:18:12;;;;;;;30.92;6.57;;;;;;;6.51;98.94;99236.97;5094492;28;20400;-76
2022/01/27 08:20:38;;;;;;;41.65;7.72;;;;;;;6.49;98.27;99215.59;5076550;28;20027;-76
2022/01/27 08:23:05;;;;;;;45.65;7.43;;;;;;;6.51;98.29;99224.25;5094168;28;20047;-75
2022/01/27 08:25:31;;;;;;;55.00;8.77;;;;;;;6.51;97.73;99205.28;5094496;28;20530;-75
2022/01/27 08:28:00;;;;;;;43.97;7.72;;;;;;;6.51;97.95;99196.38;5094324;28;20028;-75
2022/01/27 08:30:29;;;;;;;41.05;7.43;;;;;;;6.49;97.64;99193.94;5076787;28;20511;-76
2022/01/27 08:33:00;;;;;;;52.92;8.95;;;;;;;6.51;97.57;99197.19;5059962;28;20112;-76
2022/01/27 08:35:26;;;;;;;53.05;8.40;;;;;;;6.50;97.49;99195.56;5076246;28;20023;-76
2022/01/27 08:37:52;;;;;;;41.22;8.35;;;;;;;6.51;97.55;99207.22;5076296;28;20032;-76
2022/01/27 08:40:18;;;;;;;52.08;9.90;;;;;;;6.54;97.71;99201.22;5076257;28;20032;-76
2022/01/27 08:42:43;;;;;;;54.55;10.43;;;;;;;6.53;97.17;99191.50;5094136;28;20030;-76
2022/01/27 08:45:10;;;;;;;49.58;8.07;;;;;;;6.51;97.21;99174.72;5093999;28;20024;-76
2022/01/27 08:47:36;;;;;;;37.45;7.65;;;;;;;6.51;97.74;99169.31;5075986;28;20028;-76
2022/01/27 08:50:03;;;;;;;50.03;10.50;;;;;;;6.52;97.36;99160.91;5093837;28;20026;-76
2022/01/27 08:52:28;;;;;;;55.10;9.30;;;;;;;6.51;97.46;99159.28;5093476;28;20028;-76
2022/01/27 08:54:54;;;;;;;39.10;7.18;;;;;;;6.52;97.80;99204.22;5094203;28;20453;-76
2022/01/27 08:57:21;;;;;;;55.13;10.10;;;;;;;6.54;97.77;99142.47;5093719;28;20437;-77
2022/01/27 08:59:47;;;;;;;55.00;10.50;;;;;;;6.56;97.81;99131.34;5093828;28;20039;-76
2022/01/27 09:02:13;;;;;;;34.20;6.97;;;;;;;6.57;97.40;99122.13;5075795;28;20020;-76
2022/01/27 09:04:39;;;;;;;30.73;6.63;;;;;;;6.59;97.58;99098.28;5093782;28;20028;-76
2022/01/27 09:07:04;;;;;;;48.88;9.07;;;;;;;6.60;97.42;99087.19;5093640;28;20524;-76
2022/01/27 09:09:29;;;;;;;50.35;7.47;;;;;;;6.64;97.16;99112.56;5093850;28;20020;-76
2022/01/27 09:11:58;;;;;;;35.85;7.13;;;;;;;6.67;96.65;99076.78;5075821;28;20050;-76
2022/01/27 09:14:27;;;;;;;45.17;8.20;;;;;;;6.66;96.63;99072.47;5093447;28;20020;-76
2022/01/27 09:16:53;;;;;;;43.80;9.88;;;;;;;6.70;96.27;99061.06;5075337;28;20055;-76
2022/01/27 09:19:19;;;;;;;31.60;7.18;;;;;;;6.73;95.50;99066.69;5075269;28;20038;-76
2022/01/27 09:21:46;;;;;;;39.28;8.90;;;;;;;6.75;95.37;99044.75;5093269;28;20076;-76
2022/01/27 09:24:15;;;;;;;41.55;8.35;;;;;;;6.77;95.04;99047.97;5093313;28;20028;-76
2022/01/27 09:29:13;;;;;;;38.05;7.95;;;;;;;6.77;94.03;99053.41;5093683;28;20052;-76
2022/01/27 09:31:39;;;;;;;40.83;7.65;;;;;;;6.77;93.46;99075.06;5075043;28;20115;-76
2022/01/27 09:34:04;;;;;;;44.08;7.70;;;;;;;6.79;92.86;99045.75;5058354;28;20375;-76
2022/01/27 09:36:29;;;;;;;43.45;8.20;;;;;;;6.80;92.56;99069.06;5075262;28;20030;-76
2022/01/27 09:38:55;;;;;;;27.80;6.07;;;;;;;6.79;91.79;99032.22;5093141;28;20530;-76
2022/01/27 09:41:20;;;;;;;48.75;8.98;;;;;;;6.82;91.09;99050.59;5092916;28;20035;-76
2022/01/27 09:43:52;;;;;;;40.38;9.13;;;;;;;6.81;90.72;99038.16;5093095;28;20529;-76
2022/01/27 09:46:22;;;;;;;51.53;10.38;;;;;;;6.81;90.65;99032.75;5093255;28;20031;-76
2022/01/27 09:48:48;;;;;;;54.90;9.32;;;;;;;6.79;90.35;99037.63;5092810;28;20032;-76
2022/01/27 09:53:49;;;;;;;;;;;;;;;6.75;89.83;99028.50;5076327;28;20032;-76
2022/01/27 09:56:15;;;;;;;41.10;9.07;;;;;;;6.69;89.63;99043.22;5092827;28;19908;-76
2022/01/27 09:58:40;;;;;;;44.20;10.10;;;;;;;6.63;89.56;99032.44;5092615;28;20030;-76
2022/01/27 10:01:05;;;;;;;51.33;13.38;;;;;;;6.61;89.54;99031.13;5092617;28;20031;-76
2022/01/27 10:03:31;;;;;;;61.47;11.23;;;;;;;6.59;89.88;99026.00;5092605;28;20027;-76
2022/01/27 10:06:12;;;;;;;56.25;13.35;;;;;;;6.59;89.53;99025.19;5091898;28;20490;-75
2022/01/27 10:08:40;;;;;;;42.38;9.70;;;;;;;6.57;89.47;99022.75;5074905;28;20385;-75
2022/01/27 10:11:13;;;;;;;32.03;8.23;;;;;;;6.58;89.13;99072.31;5092410;28;20020;-75
2022/01/27 10:13:41;;;;;;;60.17;11.18;;;;;;;6.56;88.76;99021.16;5092455;28;20110;-74
2022/01/27 10:16:09;;;;;;;53.25;9.10;;;;;;;6.58;88.22;99027.09;5057000;28;20028;-75
2022/01/27 10:18:39;;;;;;;56.35;12.88;;;;;;;6.56;87.76;99025.78;5058513;28;20023;-75
2022/01/27 10:21:06;;;;;;;64.07;10.23;;;;;;;6.55;87.57;99078.31;5092604;28;20059;-75
2022/01/27 10:23:33;;;;;;;53.90;12.85;;;;;;;6.55;87.33;99030.38;5074198;28;20032;-76
2022/01/27 10:26:12;;;;;;;40.72;10.00;;;;;;;6.54;87.57;99050.41;5092722;28;20275;-75
2022/01/27 10:28:48;;;;;;;51.35;9.32;;;;;;;6.56;87.28;99020.34;5092383;28;20104;-76
2022/01/27 10:31:19;;;;;;;54.63;12.70;;;;;;;6.57;86.57;99020.03;5075826;28;20076;-75
2022/01/27 10:34:14;;;;;;;34.70;9.35;;;;;;;6.56;86.52;99034.69;5092510;28;20012;-75
2022/01/27 10:36:41;;;;;;;59.95;11.20;;;;;;;6.55;86.64;99030.38;5092059;28;20081;-74
2022/01/27 10:39:08;;;;;;;38.55;8.60;;;;;;;6.54;86.10;99028.75;5092165;28;20377;-75
2022/01/27 10:41:35;;;;;;;36.95;7.43;;;;;;;6.57;85.81;99036.28;5056035;28;20082;-76
2022/01/27 10:44:07;;;;;;;36.83;7.97;;;;;;;6.56;85.43;99053.63;5073947;28;20028;-75
2022/01/27 10:46:33;;;;;;;46.22;9.05;;;;;;;6.56;85.58;99029.28;5073749;28;20380;-75
2022/01/27 10:49:04;;;;;;;40.67;7.97;;;;;;;6.56;85.32;99063.66;5057503;28;20051;-76
2022/01/27 10:51:35;;;;;;;36.75;9.07;;;;;;;6.58;84.61;99051.47;5075274;28;20112;-76
2022/01/27 10:54:27;;;;;;;72.93;13.90;;;;;;;6.59;84.21;99028.69;5074781;28;20484;-76
2022/01/27 10:56:47;;;;;;;58.80;9.95;;;;;;;6.60;83.84;99033.03;5076340;28;20106;-75
2022/01/27 10:59:14;;;;;;;49.92;9.68;;;;;;;6.60;83.75;99070.94;5074033;28;20027;-76
2022/01/27 11:01:47;;;;;;;46.63;11.20;;;;;;;6.58;83.20;99059.59;5074116;28;20349;-75
2022/01/27 11:04:14;;;;;;;63.08;11.65;;;;;;;6.57;83.34;99011.94;5074866;28;20485;-75
2022/01/27 11:06:56;;;;;;;53.83;10.45;;;;;;;6.55;83.36;99046.63;5073892;28;20024;-75
2022/01/27 11:09:22;;;;;;;;;;;;;;;6.57;82.99;99044.41;5058491;28;20103;-75
2022/01/27 11:11:49;;;;;;;31.02;6.82;;;;;;;6.56;83.13;99013.03;5073958;28;19947;-75
2022/01/27 11:14:15;;;;;;;51.78;10.50;;;;;;;6.53;82.85;99019.03;5091834;28;20027;-75
2022/01/27 11:16:43;;;;;;;41.65;10.27;;;;;;;6.54;82.91;99025.25;5076427;28;20024;-75
2022/01/27 11:19:23;;;;;;;48.75;10.13;;;;;;;6.52;82.95;99068.88;5078416;28;20028;-75
2022/01/27 11:21:59;;;;;;;50.00;10.77;;;;;;;6.52;82.76;99036.38;5067138;28;20032;-75
2022/01/27 11:24:32;;;;;;;36.47;8.70;;;;;;;6.54;82.59;99031.47;5079167;28;20023;-78
2022/01/27 11:26:58;;;;;;;55.13;12.48;;;;;;;6.53;82.61;99013.63;5062415;28;20051;-75
2022/01/27 11:29:24;;;;;;;37.47;9.63;;;;;;;6.54;82.28;99118.09;5061026;28;20357;-75
2022/01/27 11:31:54;;;;;;;51.40;9.45;;;;;;;6.55;81.85;99052.03;5095627;28;20020;-75
2022/01/27 11:34:20;;;;;;;30.40;6.20;;;;;;;6.56;81.99;99010.31;5077699;28;20106;-75
2022/01/27 11:37:02;;;;;;;51.40;11.35;;;;;;;6.60;81.80;99041.16;5077284;28;20138;-75
2022/01/27 11:39:49;;;;;;;46.75;8.95;;;;;;;6.60;81.71;99022.19;5095501;28;20023;-75
2022/01/27 11:42:19;;;;;;;57.40;13.02;;;;;;;6.62;81.74;99052.47;5065824;28;20028;-76
2022/01/27 11:44:45;;;;;;;33.75;8.13;;;;;;;6.66;81.38;99096.84;5077244;28;20028;-76
2022/01/27 11:47:16;;;;;;;33.05;6.88;;;;;;;6.67;81.38;99027.25;5077589;28;20023;-75
2022/01/27 11:50:00;;;;;;;28.23;7.83;;;;;;;6.73;80.75;99017.16;5095240;28;20107;-77
2022/01/27 11:52:31;;;;;;;32.22;7.45;;;;;;;6.79;80.47;99100.75;5058699;28;20262;-76
2022/01/27 11:54:58;;;;;;;31.50;7.50;;;;;;;6.86;80.56;99040.81;5089453;28;20027;-75
2022/01/27 11:57:56;;;;;;;42.88;8.70;;;;;;;6.92;80.37;99025.28;5076860;28;20019;-75
2022/01/27 12:00:26;;;;;;;42.60;10.88;;;;;;;6.95;80.31;99033.63;5057884;28;20036;-75
2022/01/27 12:03:00;;;;;;;40.83;7.55;;;;;;;6.95;80.02;99022.00;5060200;28;20028;-76
2022/01/27 12:05:30;;;;;;;42.33;10.13;;;;;;;6.96;80.13;99024.41;5094916;28;20024;-75